Terminal Aerodrome Forecast
Issued by NWS

Home | Current Version | Previous Version | Text Only | Print | Product List | Glossary On
Versions: 1 2 3 4 5 6 7 8 9 10 11 12 13
399
FTUS43 KEAX 032326
TAFMKC
TAF
KMKC 032326Z 0400/0424 27005KT P6SM FEW070
     FM041000 31007KT P6SM SCT070
     FM041600 34012KT P6SM FEW060=

USA.gov is the U.S. government's official web portal to all federal, state and local government web resources and services.